createdAt,value
2022-10-23T00:00:30.124Z,2.22
2022-10-23T00:02:56.812Z,2.40
2022-10-23T00:05:23.569Z,2.22
2022-10-23T00:07:52.823Z,2.08
2022-10-23T00:10:19.855Z,2.30
2022-10-23T00:12:46.663Z,2.05
2022-10-23T00:15:13.510Z,2.20
2022-10-23T00:17:40.188Z,2.40
2022-10-23T00:20:07.772Z,2.40
2022-10-23T00:22:34.206Z,2.25
2022-10-23T00:25:00.566Z,2.42
2022-10-23T00:27:27.321Z,1.83
2022-10-23T00:29:53.871Z,2.30
2022-10-23T00:32:20.261Z,2.83
2022-10-23T00:34:46.699Z,2.20
2022-10-23T00:37:13.062Z,2.40
2022-10-23T00:39:39.402Z,2.30
2022-10-23T00:42:05.791Z,2.30
2022-10-23T00:44:32.203Z,2.53
2022-10-23T00:46:59.062Z,2.08
2022-10-23T00:49:25.651Z,2.30
2022-10-23T00:51:53.309Z,2.15
2022-10-23T00:54:24.385Z,2.28
2022-10-23T00:56:51.830Z,2.50
2022-10-23T00:59:18.241Z,2.70
2022-10-23T01:01:45.503Z,2.08
2022-10-23T01:04:12.119Z,2.42
2022-10-23T01:06:45.027Z,2.53
2022-10-23T01:09:29.746Z,2.13
2022-10-23T01:11:59.584Z,2.03
2022-10-23T01:14:36.034Z,1.73
2022-10-23T01:17:05.505Z,2.30
2022-10-23T01:19:50.666Z,2.00
2022-10-23T01:22:35.587Z,2.22
2022-10-23T01:25:04.635Z,2.30
2022-10-23T01:27:36.635Z,2.20
2022-10-23T01:30:03.280Z,2.00
2022-10-23T01:32:48.264Z,2.10
2022-10-23T01:35:18.977Z,1.92
2022-10-23T01:37:46.650Z,2.05
2022-10-23T01:40:29.337Z,2.05
2022-10-23T01:42:58.560Z,1.92
2022-10-23T01:45:24.910Z,2.03
2022-10-23T01:47:52.363Z,1.98
2022-10-23T01:50:20.257Z,1.88
2022-10-23T01:52:46.705Z,2.42
2022-10-23T01:55:13.548Z,1.90
2022-10-23T01:57:40.589Z,1.90
2022-10-23T02:00:12.200Z,1.75
2022-10-23T02:02:39.546Z,2.20
2022-10-23T02:05:08.917Z,1.80
2022-10-23T02:07:35.647Z,2.15
2022-10-23T02:10:03.926Z,2.03
2022-10-23T02:12:45.543Z,1.80
2022-10-23T02:15:19.893Z,2.05
2022-10-23T02:18:02.861Z,1.95
2022-10-23T02:20:29.198Z,2.00
2022-10-23T02:23:00.961Z,1.90
2022-10-23T02:25:30.626Z,1.80
2022-10-23T02:27:58.435Z,1.95
2022-10-23T02:30:24.877Z,1.70
2022-10-23T02:32:52.638Z,2.00
2022-10-23T02:35:20.142Z,1.90
2022-10-23T02:37:56.679Z,1.77
2022-10-23T02:40:24.720Z,1.85
2022-10-23T02:42:55.794Z,1.83
2022-10-23T02:45:31.160Z,1.83
2022-10-23T02:48:16.488Z,2.05
2022-10-23T02:50:58.156Z,1.70
2022-10-23T02:53:24.451Z,1.67
2022-10-23T02:56:11.063Z,1.85
2022-10-23T02:58:40.045Z,1.85
2022-10-23T03:01:10.535Z,1.80
2022-10-23T03:03:49.219Z,1.67
2022-10-23T03:06:16.403Z,1.90
2022-10-23T03:08:52.196Z,1.80
2022-10-23T03:28:23.044Z,1.30
2022-10-23T03:30:49.439Z,1.63
2022-10-23T03:33:15.808Z,1.85
2022-10-23T03:35:42.144Z,1.70
2022-10-23T03:38:08.570Z,1.42
2022-10-23T03:40:34.915Z,1.73
2022-10-23T03:43:01.386Z,1.55
2022-10-23T03:45:27.764Z,1.85
2022-10-23T03:47:54.094Z,1.83
2022-10-23T03:50:20.463Z,1.73
2022-10-23T03:52:46.814Z,1.48
2022-10-23T03:55:13.227Z,1.90
2022-10-23T03:57:39.601Z,1.40
2022-10-23T04:00:06.980Z,1.73
2022-10-23T04:02:33.413Z,1.52
2022-10-23T04:04:59.844Z,2.05
2022-10-23T04:07:26.199Z,2.10
2022-10-23T04:09:52.554Z,2.20
2022-10-23T04:12:18.939Z,2.15
2022-10-23T04:14:45.300Z,2.30
2022-10-23T04:17:11.654Z,2.42
2022-10-23T04:19:38.095Z,2.33
2022-10-23T04:22:04.475Z,1.98
2022-10-23T04:24:30.839Z,2.22
2022-10-23T04:26:57.218Z,1.85
2022-10-23T04:29:24.642Z,2.13
2022-10-23T04:31:51.541Z,1.60
2022-10-23T04:34:18.775Z,1.83
2022-10-23T04:36:45.156Z,1.88
2022-10-23T04:39:11.550Z,2.10
2022-10-23T04:41:38.946Z,1.88
2022-10-23T04:44:05.328Z,2.13
2022-10-23T04:46:31.692Z,1.77
2022-10-23T04:48:58.042Z,1.75
2022-10-23T04:51:24.433Z,1.85
2022-10-23T04:53:50.784Z,2.00
2022-10-23T04:56:17.213Z,1.67
2022-10-23T04:58:43.609Z,1.50
2022-10-23T05:01:12.984Z,1.90
2022-10-23T05:03:39.424Z,2.28
2022-10-23T05:06:06.049Z,1.63
2022-10-23T05:08:32.455Z,1.63
2022-10-23T05:10:58.954Z,1.73
2022-10-23T05:13:25.451Z,1.70
2022-10-23T05:15:52.138Z,1.85
2022-10-23T05:18:38.742Z,1.85
2022-10-23T05:21:08.330Z,1.73
2022-10-23T05:23:36.113Z,1.73
2022-10-23T05:26:03.403Z,2.15
2022-10-23T05:28:30.057Z,1.73
2022-10-23T05:30:59.018Z,1.52
2022-10-23T05:33:25.667Z,1.55
2022-10-23T05:35:52.226Z,1.70
2022-10-23T05:38:18.793Z,1.80
2022-10-23T05:40:45.190Z,1.85
2022-10-23T05:43:11.542Z,1.55
2022-10-23T05:45:37.946Z,2.03
2022-10-23T05:48:16.850Z,1.70
2022-10-23T05:50:48.542Z,1.60
2022-10-23T05:53:14.966Z,1.70
2022-10-23T05:55:41.355Z,1.88
2022-10-23T05:58:07.731Z,1.67
2022-10-23T06:00:34.133Z,1.60
2022-10-23T06:03:00.912Z,1.40
2022-10-23T06:05:27.353Z,1.73
2022-10-23T06:07:57.228Z,1.55
2022-10-23T06:10:23.612Z,1.58
2022-10-23T06:12:50.913Z,1.35
2022-10-23T06:15:17.385Z,1.60
2022-10-23T06:17:43.991Z,1.85
2022-10-23T06:20:10.801Z,1.52
2022-10-23T06:22:37.124Z,1.80
2022-10-23T06:25:03.605Z,1.83
2022-10-23T06:27:29.969Z,1.95
2022-10-23T06:29:56.329Z,1.70
2022-10-23T06:32:22.693Z,1.40
2022-10-23T06:34:49.048Z,1.83
2022-10-23T06:37:15.421Z,1.80
2022-10-23T06:39:41.830Z,1.70
2022-10-23T06:42:08.184Z,1.67
2022-10-23T06:44:35.055Z,1.70
2022-10-23T06:47:02.193Z,1.38
2022-10-23T06:49:28.503Z,1.60
2022-10-23T06:51:54.872Z,1.20
2022-10-23T06:54:21.254Z,1.75
2022-10-23T06:56:47.599Z,1.60
2022-10-23T06:59:14.316Z,1.40
2022-10-23T07:01:40.902Z,1.75
2022-10-23T07:04:07.450Z,1.50
2022-10-23T07:06:33.840Z,1.30
2022-10-23T07:09:00.288Z,1.13
2022-10-23T07:11:27.413Z,1.27
2022-10-23T07:13:53.787Z,1.33
2022-10-23T07:16:21.295Z,1.00
2022-10-23T07:18:48.220Z,1.17
2022-10-23T07:21:14.968Z,1.35
2022-10-23T07:23:41.390Z,1.30
2022-10-23T07:26:14.321Z,1.20
2022-10-23T07:28:41.846Z,1.25
2022-10-23T07:31:08.394Z,1.27
2022-10-23T07:33:34.736Z,1.15
2022-10-23T07:36:01.123Z,1.02
2022-10-23T07:38:27.883Z,1.20
2022-10-23T07:40:57.625Z,1.15
2022-10-23T07:43:25.463Z,1.00
2022-10-23T07:45:52.631Z,1.08
2022-10-23T07:48:19.322Z,1.20
2022-10-23T07:50:45.705Z,1.20
2022-10-23T07:53:22.506Z,1.40
2022-10-23T07:55:55.887Z,1.00
2022-10-23T07:58:22.383Z,0.90
2022-10-23T08:00:54.471Z,1.20
2022-10-23T08:03:20.866Z,1.00
2022-10-23T08:05:47.299Z,1.00
2022-10-23T08:08:13.783Z,1.00
2022-10-23T08:10:41.615Z,1.10
2022-10-23T08:13:09.653Z,1.05
2022-10-23T08:15:36.046Z,1.10
2022-10-23T08:18:02.376Z,0.88
2022-10-23T08:20:28.750Z,0.82
2022-10-23T08:22:56.577Z,1.02
2022-10-23T08:25:24.851Z,1.20
2022-10-23T08:27:52.337Z,1.00
2022-10-23T08:30:18.687Z,0.80
2022-10-23T08:32:45.012Z,1.00
2022-10-23T08:35:11.337Z,0.90
2022-10-23T08:37:37.733Z,0.93
2022-10-23T08:40:04.198Z,1.00
2022-10-23T08:42:30.613Z,1.10
2022-10-23T08:45:04.128Z,0.88
2022-10-23T08:47:46.026Z,0.88
2022-10-23T08:50:34.844Z,0.88
2022-10-23T08:53:03.810Z,0.85
2022-10-23T08:55:33.128Z,1.00
2022-10-23T08:58:02.511Z,0.90
2022-10-23T09:00:29.480Z,1.00
2022-10-23T09:02:56.161Z,1.00
2022-10-23T09:05:41.415Z,1.00
2022-10-23T09:08:16.263Z,0.93
2022-10-23T09:11:02.899Z,1.00
2022-10-23T09:13:29.210Z,0.65
2022-10-23T09:16:13.435Z,0.90
2022-10-23T09:18:41.163Z,0.90
2022-10-23T09:21:11.006Z,0.90
2022-10-23T09:23:37.578Z,0.90
2022-10-23T09:26:11.213Z,0.95
2022-10-23T09:28:43.258Z,1.00
2022-10-23T09:31:11.804Z,0.70
2022-10-23T09:33:38.616Z,1.00
2022-10-23T09:36:06.471Z,1.00
2022-10-23T09:38:37.270Z,0.93
2022-10-23T09:41:03.664Z,0.80
2022-10-23T09:43:30.291Z,0.80
2022-10-23T09:45:59.985Z,0.80
2022-10-23T09:48:26.688Z,0.90
2022-10-23T09:50:54.416Z,0.82
2022-10-23T09:53:32.158Z,1.00
2022-10-23T09:56:24.789Z,0.73
2022-10-23T09:58:56.374Z,0.85
2022-10-23T10:01:24.687Z,0.90
2022-10-23T10:03:52.060Z,0.82
2022-10-23T10:06:23.386Z,0.80
2022-10-23T10:08:52.020Z,0.80
2022-10-23T10:11:24.680Z,0.90
2022-10-23T10:13:53.883Z,0.90
2022-10-23T10:16:29.338Z,0.95
2022-10-23T10:18:59.731Z,0.90
2022-10-23T10:21:49.381Z,0.73
2022-10-23T10:24:18.898Z,0.63
2022-10-23T10:26:51.032Z,0.80
2022-10-23T10:29:23.194Z,0.82
2022-10-23T10:32:03.741Z,0.70
2022-10-23T10:34:39.112Z,0.73
2022-10-23T10:37:24.169Z,0.82
2022-10-23T10:40:05.681Z,0.90
2022-10-23T10:42:50.828Z,0.90
2022-10-23T10:45:17.309Z,0.60
2022-10-23T10:47:52.822Z,0.70
2022-10-23T10:50:27.982Z,0.80
2022-10-23T10:53:03.938Z,0.68
2022-10-23T10:55:33.623Z,0.73
2022-10-23T10:58:05.931Z,1.02
2022-10-23T11:00:33.677Z,0.80
2022-10-23T11:03:00.031Z,0.95
2022-10-23T11:05:34.322Z,0.73
2022-10-23T11:08:05.285Z,1.00
2022-10-23T11:10:32.401Z,1.10
2022-10-23T11:12:58.849Z,0.73
2022-10-23T11:15:27.972Z,0.90
2022-10-23T11:17:57.018Z,0.93
2022-10-23T11:20:23.345Z,0.75
2022-10-23T11:22:58.555Z,0.80
2022-10-23T11:25:44.057Z,0.90
2022-10-23T11:28:19.350Z,0.80
2022-10-23T11:30:54.922Z,0.73
2022-10-23T11:33:37.082Z,1.00
2022-10-23T11:36:05.048Z,0.70
2022-10-23T11:38:33.224Z,0.80
2022-10-23T11:41:00.675Z,0.75
2022-10-23T11:43:46.976Z,0.80
2022-10-23T11:46:14.069Z,0.70
2022-10-23T11:48:44.051Z,0.82
2022-10-23T11:51:45.951Z,1.00
2022-10-23T11:54:13.548Z,0.70
2022-10-23T11:56:58.820Z,0.90
2022-10-23T11:59:25.637Z,0.80
2022-10-23T12:01:53.293Z,0.80
2022-10-23T12:04:26.374Z,0.90
2022-10-23T12:06:53.999Z,1.00
2022-10-23T12:09:28.865Z,0.73
2022-10-23T12:12:02.816Z,0.63
2022-10-23T12:14:33.637Z,0.70
2022-10-23T12:17:00.110Z,0.93
2022-10-23T12:19:30.728Z,0.75
2022-10-23T12:21:59.151Z,0.80
2022-10-23T12:24:40.116Z,0.80
2022-10-23T12:27:13.403Z,0.85
2022-10-23T12:29:45.912Z,0.70
2022-10-23T12:32:30.864Z,1.48
2022-10-23T12:35:15.886Z,0.77
2022-10-23T12:37:57.287Z,0.88
2022-10-23T12:40:29.782Z,0.80
2022-10-23T12:42:57.386Z,0.82
2022-10-23T12:45:28.469Z,0.75
2022-10-23T12:47:54.967Z,0.73
2022-10-23T12:50:25.739Z,1.02
2022-10-23T12:52:56.628Z,0.88
2022-10-23T12:55:23.919Z,0.52
2022-10-23T12:57:50.969Z,0.63
2022-10-23T13:00:21.947Z,0.82
2022-10-23T13:03:00.413Z,0.80
2022-10-23T13:05:27.039Z,0.80
2022-10-23T13:07:53.809Z,0.80
2022-10-23T13:10:21.372Z,0.70
2022-10-23T13:12:53.375Z,0.50
2022-10-23T13:15:20.332Z,0.70
2022-10-23T13:17:47.913Z,0.60
2022-10-23T13:20:17.385Z,0.60
2022-10-23T13:22:44.708Z,0.60
2022-10-23T13:25:44.534Z,0.70
2022-10-23T13:28:35.238Z,0.90
2022-10-23T13:31:13.564Z,0.70
2022-10-23T13:33:53.948Z,0.60
2022-10-23T13:36:21.900Z,0.60
2022-10-23T13:39:00.649Z,0.50
2022-10-23T13:41:28.193Z,0.70
2022-10-23T13:43:54.713Z,0.70
2022-10-23T13:46:25.461Z,0.70
2022-10-23T13:48:57.709Z,0.57
2022-10-23T13:51:37.569Z,0.70
2022-10-23T13:54:13.467Z,0.70
2022-10-23T13:56:40.429Z,0.60
2022-10-23T13:59:09.668Z,1.00
2022-10-23T14:01:40.070Z,0.77
2022-10-23T14:04:09.622Z,0.80
2022-10-23T14:06:41.118Z,0.80
2022-10-23T14:09:08.910Z,0.60
2022-10-23T14:11:43.487Z,0.70
2022-10-23T14:14:09.992Z,0.80
2022-10-23T14:16:36.385Z,0.80
2022-10-23T14:19:02.910Z,0.50
2022-10-23T14:21:29.300Z,0.70
2022-10-23T14:23:55.708Z,0.70
2022-10-23T14:26:24.091Z,0.60
2022-10-23T14:29:06.512Z,0.70
2022-10-23T14:34:11.493Z,0.75
2022-10-23T14:37:08.204Z,0.63
2022-10-23T14:39:35.575Z,0.60
2022-10-23T14:42:02.072Z,0.60
2022-10-23T14:44:31.278Z,0.80
2022-10-23T14:47:00.311Z,0.80
2022-10-23T14:49:26.767Z,0.80
2022-10-23T14:51:53.328Z,0.60
2022-10-23T14:54:19.874Z,0.68
2022-10-23T14:56:46.382Z,0.80
2022-10-23T14:59:15.099Z,0.70
2022-10-23T15:01:45.562Z,0.63
2022-10-23T15:04:14.374Z,0.77
2022-10-23T15:06:41.685Z,0.73
2022-10-23T15:09:08.142Z,0.68
2022-10-23T15:11:37.093Z,0.57
2022-10-23T15:14:27.221Z,0.68
2022-10-23T15:16:53.717Z,0.52
2022-10-23T15:19:20.072Z,0.63
2022-10-23T15:21:47.509Z,0.80
2022-10-23T15:24:20.833Z,0.73
2022-10-23T15:26:47.676Z,0.70
2022-10-23T15:29:17.010Z,0.60
2022-10-23T15:31:45.120Z,0.60
2022-10-23T15:34:19.606Z,0.75
2022-10-23T15:36:47.066Z,0.57
2022-10-23T15:39:14.826Z,0.70
2022-10-23T15:41:42.069Z,0.60
2022-10-23T15:44:09.251Z,0.60
2022-10-23T15:46:36.308Z,0.70
2022-10-23T15:49:03.176Z,0.60
2022-10-23T15:51:29.545Z,1.02
2022-10-23T15:53:57.043Z,0.90
2022-10-23T15:56:24.371Z,0.95
2022-10-23T15:58:50.749Z,0.60
2022-10-23T16:01:17.507Z,0.70
2022-10-23T16:03:44.032Z,0.70
2022-10-23T16:06:12.084Z,0.80
2022-10-23T16:08:38.758Z,0.95
2022-10-23T16:11:12.323Z,0.50
2022-10-23T16:13:38.696Z,0.55
2022-10-23T16:16:05.296Z,0.57
2022-10-23T16:18:31.667Z,0.75
2022-10-23T16:20:58.068Z,0.70
2022-10-23T16:23:28.239Z,0.90
2022-10-23T16:25:56.860Z,0.77
2022-10-23T16:28:23.297Z,0.68
2022-10-23T16:30:49.749Z,0.80
2022-10-23T16:33:16.102Z,0.70
2022-10-23T16:35:42.675Z,0.60
2022-10-23T16:38:09.096Z,0.85
2022-10-23T16:40:35.541Z,0.95
2022-10-23T16:43:01.949Z,0.60
2022-10-23T16:45:28.459Z,0.88
2022-10-23T16:47:54.877Z,0.75
2022-10-23T16:50:21.597Z,0.90
2022-10-23T16:52:49.887Z,0.90
2022-10-23T16:55:18.542Z,0.80
2022-10-23T16:57:45.002Z,1.20
2022-10-23T17:00:13.637Z,1.00
2022-10-23T17:02:40.034Z,1.00
2022-10-23T17:05:06.537Z,0.95
2022-10-23T17:07:33.074Z,0.98
2022-10-23T17:09:59.539Z,0.88
2022-10-23T17:12:25.912Z,1.02
2022-10-23T17:14:52.266Z,1.05
2022-10-23T17:17:20.865Z,0.98
2022-10-23T17:19:47.346Z,1.05
2022-10-23T17:22:14.078Z,1.00
2022-10-23T17:24:41.101Z,0.80
2022-10-23T17:27:07.752Z,0.82
2022-10-23T17:29:40.305Z,0.88
2022-10-23T17:32:59.438Z,0.85
2022-10-23T17:35:53.658Z,1.00
2022-10-23T17:38:21.320Z,0.85
2022-10-23T17:40:50.840Z,1.00
2022-10-23T17:43:38.475Z,1.00
2022-10-23T17:46:05.830Z,0.93
2022-10-23T17:48:32.300Z,0.90
2022-10-23T17:51:09.247Z,0.90
2022-10-23T17:53:41.227Z,1.10
2022-10-23T17:56:09.213Z,0.93
2022-10-23T17:58:36.786Z,1.13
2022-10-23T18:01:06.631Z,1.00
2022-10-23T18:03:33.582Z,1.10
2022-10-23T18:06:05.832Z,1.08
2022-10-23T18:08:32.343Z,1.08
2022-10-23T18:10:58.734Z,1.00
2022-10-23T18:13:30.628Z,1.00
2022-10-23T18:16:00.226Z,0.90
2022-10-23T18:18:26.591Z,1.00
2022-10-23T18:20:52.967Z,1.10
2022-10-23T18:23:19.474Z,1.13
2022-10-23T18:25:51.987Z,1.10
2022-10-23T18:28:19.805Z,0.82
2022-10-23T18:30:48.091Z,1.02
2022-10-23T18:33:15.132Z,0.82
2022-10-23T18:35:41.519Z,1.00
2022-10-23T18:38:09.735Z,1.00
2022-10-23T18:40:36.993Z,0.88
2022-10-23T18:43:03.735Z,0.90
2022-10-23T18:45:30.332Z,0.95
2022-10-23T18:47:56.733Z,0.95
2022-10-23T18:50:24.730Z,0.95
2022-10-23T18:52:51.291Z,1.00
2022-10-23T18:55:17.663Z,0.98
2022-10-23T18:57:44.215Z,1.05
2022-10-23T19:00:11.476Z,1.10
2022-10-23T19:02:38.791Z,0.85
2022-10-23T19:05:06.113Z,0.85
2022-10-23T19:07:32.783Z,1.08
2022-10-23T19:10:00.038Z,1.13
2022-10-23T19:12:27.116Z,0.80
2022-10-23T19:14:54.951Z,1.00
2022-10-23T19:17:24.567Z,1.05
2022-10-23T19:19:56.566Z,0.90
2022-10-23T19:22:23.558Z,1.20
2022-10-23T19:24:54.720Z,0.90
2022-10-23T19:27:22.210Z,1.00
2022-10-23T19:29:50.066Z,1.00
2022-10-23T19:32:16.498Z,1.02
2022-10-23T19:34:43.478Z,1.20
2022-10-23T19:37:09.885Z,1.02
2022-10-23T19:39:36.415Z,1.15
2022-10-23T19:42:02.919Z,0.95
2022-10-23T19:44:29.425Z,1.02
2022-10-23T19:46:56.413Z,1.27
2022-10-23T19:49:23.962Z,1.25
2022-10-23T19:51:51.537Z,1.00
2022-10-23T19:54:18.579Z,1.17
2022-10-23T19:56:44.969Z,1.20
2022-10-23T19:59:13.080Z,1.27
2022-10-23T20:01:41.914Z,1.00
2022-10-23T20:04:11.369Z,1.10
2022-10-23T20:06:38.150Z,1.00
2022-10-23T20:09:08.123Z,1.17
2022-10-23T20:11:35.568Z,0.88
2022-10-23T20:14:02.547Z,1.10
2022-10-23T20:16:33.460Z,1.20
2022-10-23T20:19:01.849Z,1.13
2022-10-23T20:21:28.241Z,1.13
2022-10-23T20:23:56.502Z,0.90
2022-10-23T20:26:23.107Z,1.05
2022-10-23T20:28:52.164Z,0.90
2022-10-23T20:31:19.894Z,0.98
2022-10-23T20:33:46.535Z,1.00
2022-10-23T20:36:28.170Z,1.05
2022-10-23T20:38:58.349Z,0.93
2022-10-23T20:41:27.112Z,1.50
2022-10-23T20:43:55.496Z,0.98
2022-10-23T20:46:22.851Z,0.90
2022-10-23T20:48:49.692Z,0.90
2022-10-23T20:51:17.395Z,1.10
2022-10-23T20:53:46.658Z,1.05
2022-10-23T20:56:17.414Z,1.00
2022-10-23T20:58:43.850Z,0.85
2022-10-23T21:01:13.183Z,0.93
2022-10-23T21:03:39.995Z,0.70
2022-10-23T21:06:10.456Z,0.90
2022-10-23T21:08:37.875Z,1.20
2022-10-23T21:11:04.331Z,1.00
2022-10-23T21:13:31.168Z,1.08
2022-10-23T21:15:57.841Z,1.92
2022-10-23T21:18:41.105Z,0.90
2022-10-23T21:21:12.006Z,1.38
2022-10-23T21:23:38.758Z,1.00
2022-10-23T21:26:07.413Z,1.00
2022-10-23T21:28:34.535Z,1.17
2022-10-23T21:31:04.468Z,1.00
2022-10-23T21:33:31.117Z,1.05
2022-10-23T21:35:58.694Z,1.40
2022-10-23T21:38:31.336Z,1.25
2022-10-23T21:41:07.577Z,1.27
2022-10-23T21:43:33.984Z,1.48
2022-10-23T21:46:04.585Z,1.30
2022-10-23T21:48:31.092Z,1.58
2022-10-23T21:50:58.262Z,1.38
2022-10-23T21:53:25.060Z,1.92
2022-10-23T21:55:51.672Z,1.63
2022-10-23T21:58:18.116Z,1.60
2022-10-23T22:00:44.526Z,1.30
2022-10-23T22:03:11.087Z,1.23
2022-10-23T22:05:37.461Z,1.20
2022-10-23T22:08:03.979Z,1.30
2022-10-23T22:10:30.455Z,1.35
2022-10-23T22:12:57.028Z,1.40
2022-10-23T22:15:23.410Z,1.60
2022-10-23T22:17:49.986Z,1.70
2022-10-23T22:20:16.492Z,1.60
2022-10-23T22:22:42.891Z,1.33
2022-10-23T22:25:09.355Z,1.33
2022-10-23T22:27:37.224Z,1.70
2022-10-23T22:30:04.869Z,1.30
2022-10-23T22:32:32.082Z,1.58
2022-10-23T22:34:58.540Z,1.35
2022-10-23T22:37:24.948Z,1.17
2022-10-23T22:39:52.065Z,1.20
2022-10-23T22:42:19.259Z,1.23
2022-10-23T22:44:45.642Z,1.42
2022-10-23T22:47:12.133Z,1.20
2022-10-23T22:49:39.373Z,1.30
2022-10-23T22:52:05.773Z,1.10
2022-10-23T22:54:32.337Z,1.02
2022-10-23T22:56:58.847Z,0.95
2022-10-23T22:59:25.285Z,0.93
2022-10-23T23:01:52.195Z,1.15
2022-10-23T23:04:38.140Z,0.98
2022-10-23T23:07:06.358Z,1.00
2022-10-23T23:09:35.357Z,1.00
2022-10-23T23:12:01.733Z,0.90
2022-10-23T23:14:28.153Z,1.08
2022-10-23T23:16:54.553Z,0.90
2022-10-23T23:19:23.309Z,1.00
2022-10-23T23:21:58.610Z,0.98
2022-10-23T23:24:28.626Z,0.98
2022-10-23T23:26:54.974Z,1.10
2022-10-23T23:29:21.778Z,0.70
2022-10-23T23:31:48.301Z,1.00
2022-10-23T23:34:20.470Z,0.85
2022-10-23T23:36:47.065Z,0.80
2022-10-23T23:39:13.915Z,0.80
2022-10-23T23:41:40.395Z,0.73
2022-10-23T23:44:08.437Z,0.80
2022-10-23T23:46:34.889Z,0.85
2022-10-23T23:49:01.288Z,0.90
2022-10-23T23:51:27.743Z,0.88
2022-10-23T23:53:54.479Z,0.82
2022-10-23T23:56:21.225Z,0.90
2022-10-23T23:58:47.670Z,0.65
